METAR Data
IDs: Format: Raw Decoded Include TAF

Data at: 0329 UTC 19 Oct 2021

EKRN 190320Z AUTO 17007KT 9999 BKN016/// OVC140/// 11/10 Q1020